sensor_id;sensor_type;location;lat;lon;timestamp;P1;durP1;ratioP1;P2;durP2;ratioP2
41739;SDS011;27422;52.444;13.300;2023-04-25T00:00:38;4.45;;;1.70;;
41739;SDS011;27422;52.444;13.300;2023-04-25T00:03:03;5.28;;;1.52;;
41739;SDS011;27422;52.444;13.300;2023-04-25T00:05:30;2.77;;;1.20;;
41739;SDS011;27422;52.444;13.300;2023-04-25T00:07:56;3.55;;;1.30;;
41739;SDS011;27422;52.444;13.300;2023-04-25T00:10:22;2.88;;;1.20;;
41739;SDS011;27422;52.444;13.300;2023-04-25T00:12:48;2.78;;;1.10;;
41739;SDS011;27422;52.444;13.300;2023-04-25T00:15:13;3.13;;;1.17;;
41739;SDS011;27422;52.444;13.300;2023-04-25T00:17:39;5.40;;;1.50;;
41739;SDS011;27422;52.444;13.300;2023-04-25T00:20:05;3.40;;;1.27;;
41739;SDS011;27422;52.444;13.300;2023-04-25T00:22:32;2.97;;;1.23;;
41739;SDS011;27422;52.444;13.300;2023-04-25T00:27:25;3.95;;;1.20;;
41739;SDS011;27422;52.444;13.300;2023-04-25T00:29:51;4.47;;;1.42;;
41739;SDS011;27422;52.444;13.300;2023-04-25T00:32:16;6.10;;;1.50;;
41739;SDS011;27422;52.444;13.300;2023-04-25T00:34:42;5.57;;;1.65;;
41739;SDS011;27422;52.444;13.300;2023-04-25T00:37:07;3.95;;;1.45;;
41739;SDS011;27422;52.444;13.300;2023-04-25T00:39:32;2.78;;;1.20;;
41739;SDS011;27422;52.444;13.300;2023-04-25T00:41:58;2.60;;;1.40;;
41739;SDS011;27422;52.444;13.300;2023-04-25T00:44:24;4.55;;;1.55;;
41739;SDS011;27422;52.444;13.300;2023-04-25T00:46:50;4.25;;;1.73;;
41739;SDS011;27422;52.444;13.300;2023-04-25T00:49:15;4.85;;;1.63;;
41739;SDS011;27422;52.444;13.300;2023-04-25T00:51:42;4.70;;;1.58;;
41739;SDS011;27422;52.444;13.300;2023-04-25T00:56:35;6.78;;;1.70;;
41739;SDS011;27422;52.444;13.300;2023-04-25T00:59:00;5.03;;;1.63;;
41739;SDS011;27422;52.444;13.300;2023-04-25T01:01:26;7.50;;;2.13;;
41739;SDS011;27422;52.444;13.300;2023-04-25T01:03:53;4.32;;;1.55;;
41739;SDS011;27422;52.444;13.300;2023-04-25T01:06:18;6.00;;;1.92;;
41739;SDS011;27422;52.444;13.300;2023-04-25T01:08:44;4.18;;;1.70;;
41739;SDS011;27422;52.444;13.300;2023-04-25T01:11:10;4.63;;;1.50;;
41739;SDS011;27422;52.444;13.300;2023-04-25T01:13:35;3.72;;;1.40;;
41739;SDS011;27422;52.444;13.300;2023-04-25T01:16:01;4.55;;;1.27;;
41739;SDS011;27422;52.444;13.300;2023-04-25T01:18:27;4.75;;;1.60;;
41739;SDS011;27422;52.444;13.300;2023-04-25T01:20:53;4.10;;;1.60;;
41739;SDS011;27422;52.444;13.300;2023-04-25T01:23:22;4.63;;;1.70;;
41739;SDS011;27422;52.444;13.300;2023-04-25T01:25:48;5.18;;;1.80;;
41739;SDS011;27422;52.444;13.300;2023-04-25T01:28:14;4.47;;;1.50;;
41739;SDS011;27422;52.444;13.300;2023-04-25T01:30:40;4.95;;;1.65;;
41739;SDS011;27422;52.444;13.300;2023-04-25T01:33:06;4.78;;;1.60;;
41739;SDS011;27422;52.444;13.300;2023-04-25T01:35:33;6.68;;;1.67;;
41739;SDS011;27422;52.444;13.300;2023-04-25T01:37:58;6.03;;;1.67;;
41739;SDS011;27422;52.444;13.300;2023-04-25T01:40:24;4.47;;;1.75;;
41739;SDS011;27422;52.444;13.300;2023-04-25T01:42:50;4.30;;;1.70;;
41739;SDS011;27422;52.444;13.300;2023-04-25T01:45:16;3.55;;;1.40;;
41739;SDS011;27422;52.444;13.300;2023-04-25T01:47:42;5.82;;;2.00;;
41739;SDS011;27422;52.444;13.300;2023-04-25T01:50:08;5.15;;;1.63;;
41739;SDS011;27422;52.444;13.300;2023-04-25T01:52:36;5.07;;;1.90;;
41739;SDS011;27422;52.444;13.300;2023-04-25T01:55:02;4.18;;;1.58;;
41739;SDS011;27422;52.444;13.300;2023-04-25T01:57:27;4.97;;;1.92;;
41739;SDS011;27422;52.444;13.300;2023-04-25T01:59:55;7.35;;;2.00;;
41739;SDS011;27422;52.444;13.300;2023-04-25T02:02:23;4.07;;;1.50;;
41739;SDS011;27422;52.444;13.300;2023-04-25T02:04:49;5.40;;;1.80;;
41739;SDS011;27422;52.444;13.300;2023-04-25T02:07:15;7.72;;;2.17;;
41739;SDS011;27422;52.444;13.300;2023-04-25T02:09:40;6.45;;;1.75;;
41739;SDS011;27422;52.444;13.300;2023-04-25T02:12:07;4.38;;;1.73;;
41739;SDS011;27422;52.444;13.300;2023-04-25T02:14:33;4.13;;;1.80;;
41739;SDS011;27422;52.444;13.300;2023-04-25T02:16:59;3.60;;;1.85;;
41739;SDS011;27422;52.444;13.300;2023-04-25T02:19:24;4.90;;;2.10;;
41739;SDS011;27422;52.444;13.300;2023-04-25T02:21:50;3.92;;;1.83;;
41739;SDS011;27422;52.444;13.300;2023-04-25T02:24:15;5.45;;;1.77;;
41739;SDS011;27422;52.444;13.300;2023-04-25T02:26:41;3.65;;;1.85;;
41739;SDS011;27422;52.444;13.300;2023-04-25T02:29:06;5.30;;;2.10;;
41739;SDS011;27422;52.444;13.300;2023-04-25T02:31:32;6.78;;;2.50;;
41739;SDS011;27422;52.444;13.300;2023-04-25T02:33:57;5.40;;;2.20;;
41739;SDS011;27422;52.444;13.300;2023-04-25T02:36:22;6.78;;;2.85;;
41739;SDS011;27422;52.444;13.300;2023-04-25T02:38:48;5.20;;;2.08;;
41739;SDS011;27422;52.444;13.300;2023-04-25T02:41:15;5.32;;;2.10;;
41739;SDS011;27422;52.444;13.300;2023-04-25T02:43:40;4.93;;;2.10;;
41739;SDS011;27422;52.444;13.300;2023-04-25T02:46:05;5.50;;;2.00;;
41739;SDS011;27422;52.444;13.300;2023-04-25T02:48:31;7.38;;;2.40;;
41739;SDS011;27422;52.444;13.300;2023-04-25T02:50:56;6.05;;;2.47;;
41739;SDS011;27422;52.444;13.300;2023-04-25T02:53:22;8.65;;;3.03;;
41739;SDS011;27422;52.444;13.300;2023-04-25T02:55:47;4.65;;;2.10;;
41739;SDS011;27422;52.444;13.300;2023-04-25T02:58:12;7.10;;;2.05;;
41739;SDS011;27422;52.444;13.300;2023-04-25T03:00:38;9.57;;;2.28;;
41739;SDS011;27422;52.444;13.300;2023-04-25T03:03:03;7.57;;;2.50;;
41739;SDS011;27422;52.444;13.300;2023-04-25T03:05:29;5.20;;;2.25;;
41739;SDS011;27422;52.444;13.300;2023-04-25T03:07:54;7.13;;;2.45;;
41739;SDS011;27422;52.444;13.300;2023-04-25T03:10:20;5.05;;;2.00;;
41739;SDS011;27422;52.444;13.300;2023-04-25T03:12:45;5.82;;;2.83;;
41739;SDS011;27422;52.444;13.300;2023-04-25T03:15:11;6.75;;;2.78;;
41739;SDS011;27422;52.444;13.300;2023-04-25T03:17:36;6.07;;;2.00;;
41739;SDS011;27422;52.444;13.300;2023-04-25T03:20:02;6.35;;;2.55;;
41739;SDS011;27422;52.444;13.300;2023-04-25T03:22:29;5.57;;;2.40;;
41739;SDS011;27422;52.444;13.300;2023-04-25T03:24:54;6.97;;;2.45;;
41739;SDS011;27422;52.444;13.300;2023-04-25T03:27:19;5.90;;;2.50;;
41739;SDS011;27422;52.444;13.300;2023-04-25T03:29:45;5.88;;;2.15;;
41739;SDS011;27422;52.444;13.300;2023-04-25T03:32:10;5.28;;;2.35;;
41739;SDS011;27422;52.444;13.300;2023-04-25T03:34:35;6.07;;;2.17;;
41739;SDS011;27422;52.444;13.300;2023-04-25T03:37:01;6.95;;;2.30;;
41739;SDS011;27422;52.444;13.300;2023-04-25T03:39:26;6.20;;;2.70;;
41739;SDS011;27422;52.444;13.300;2023-04-25T03:41:52;6.28;;;2.65;;
41739;SDS011;27422;52.444;13.300;2023-04-25T03:44:17;7.68;;;2.58;;
41739;SDS011;27422;52.444;13.300;2023-04-25T03:46:42;5.72;;;2.53;;
41739;SDS011;27422;52.444;13.300;2023-04-25T03:49:08;7.47;;;3.00;;
41739;SDS011;27422;52.444;13.300;2023-04-25T03:51:33;5.07;;;2.65;;
41739;SDS011;27422;52.444;13.300;2023-04-25T03:53:59;5.88;;;2.63;;
41739;SDS011;27422;52.444;13.300;2023-04-25T03:56:24;5.22;;;2.15;;
41739;SDS011;27422;52.444;13.300;2023-04-25T03:58:50;6.85;;;2.22;;
41739;SDS011;27422;52.444;13.300;2023-04-25T04:01:15;5.38;;;2.22;;
41739;SDS011;27422;52.444;13.300;2023-04-25T04:03:40;6.82;;;2.40;;
41739;SDS011;27422;52.444;13.300;2023-04-25T04:06:06;6.10;;;2.58;;
41739;SDS011;27422;52.444;13.300;2023-04-25T04:08:32;7.15;;;2.58;;
41739;SDS011;27422;52.444;13.300;2023-04-25T04:10:58;6.60;;;2.67;;
41739;SDS011;27422;52.444;13.300;2023-04-25T04:13:27;5.88;;;2.20;;
41739;SDS011;27422;52.444;13.300;2023-04-25T04:15:53;7.47;;;2.55;;
41739;SDS011;27422;52.444;13.300;2023-04-25T04:18:18;5.57;;;2.45;;
41739;SDS011;27422;52.444;13.300;2023-04-25T04:20:44;6.20;;;2.72;;
41739;SDS011;27422;52.444;13.300;2023-04-25T04:23:09;5.57;;;2.17;;
41739;SDS011;27422;52.444;13.300;2023-04-25T04:25:35;6.88;;;2.60;;
41739;SDS011;27422;52.444;13.300;2023-04-25T04:28:01;8.63;;;2.67;;
41739;SDS011;27422;52.444;13.300;2023-04-25T04:30:26;7.45;;;3.03;;
41739;SDS011;27422;52.444;13.300;2023-04-25T04:32:55;5.68;;;2.38;;
41739;SDS011;27422;52.444;13.300;2023-04-25T04:35:21;7.13;;;2.90;;
41739;SDS011;27422;52.444;13.300;2023-04-25T04:37:47;6.38;;;2.60;;
41739;SDS011;27422;52.444;13.300;2023-04-25T04:40:13;6.93;;;2.92;;
41739;SDS011;27422;52.444;13.300;2023-04-25T04:42:40;7.07;;;2.60;;
41739;SDS011;27422;52.444;13.300;2023-04-25T04:45:06;6.03;;;2.53;;
41739;SDS011;27422;52.444;13.300;2023-04-25T04:47:32;9.13;;;3.17;;
41739;SDS011;27422;52.444;13.300;2023-04-25T04:49:58;5.07;;;2.72;;
41739;SDS011;27422;52.444;13.300;2023-04-25T04:52:24;7.45;;;2.72;;
41739;SDS011;27422;52.444;13.300;2023-04-25T04:54:49;5.70;;;2.55;;
41739;SDS011;27422;52.444;13.300;2023-04-25T04:57:15;5.50;;;2.35;;
41739;SDS011;27422;52.444;13.300;2023-04-25T04:59:41;7.93;;;2.95;;
41739;SDS011;27422;52.444;13.300;2023-04-25T05:02:07;8.90;;;2.67;;
41739;SDS011;27422;52.444;13.300;2023-04-25T05:04:32;7.25;;;2.88;;
41739;SDS011;27422;52.444;13.300;2023-04-25T05:06:58;6.18;;;2.85;;
41739;SDS011;27422;52.444;13.300;2023-04-25T05:09:23;5.50;;;2.63;;
41739;SDS011;27422;52.444;13.300;2023-04-25T05:11:50;5.28;;;2.50;;
41739;SDS011;27422;52.444;13.300;2023-04-25T05:14:16;7.85;;;2.53;;
41739;SDS011;27422;52.444;13.300;2023-04-25T05:16:42;5.68;;;2.70;;
41739;SDS011;27422;52.444;13.300;2023-04-25T05:19:08;5.38;;;2.22;;
41739;SDS011;27422;52.444;13.300;2023-04-25T05:21:33;9.65;;;2.63;;
41739;SDS011;27422;52.444;13.300;2023-04-25T05:23:59;5.88;;;2.45;;
41739;SDS011;27422;52.444;13.300;2023-04-25T05:26:25;7.82;;;3.15;;
41739;SDS011;27422;52.444;13.300;2023-04-25T05:28:50;6.57;;;2.83;;
41739;SDS011;27422;52.444;13.300;2023-04-25T05:31:18;6.93;;;2.88;;
41739;SDS011;27422;52.444;13.300;2023-04-25T05:33:44;8.35;;;2.85;;
41739;SDS011;27422;52.444;13.300;2023-04-25T05:36:09;6.35;;;2.67;;
41739;SDS011;27422;52.444;13.300;2023-04-25T05:38:34;7.22;;;2.97;;
41739;SDS011;27422;52.444;13.300;2023-04-25T05:41:00;5.50;;;2.45;;
41739;SDS011;27422;52.444;13.300;2023-04-25T05:43:25;6.60;;;2.58;;
41739;SDS011;27422;52.444;13.300;2023-04-25T05:45:51;9.38;;;2.65;;
41739;SDS011;27422;52.444;13.300;2023-04-25T05:48:16;6.22;;;2.92;;
41739;SDS011;27422;52.444;13.300;2023-04-25T05:50:41;7.22;;;3.60;;
41739;SDS011;27422;52.444;13.300;2023-04-25T05:53:07;6.13;;;2.95;;
41739;SDS011;27422;52.444;13.300;2023-04-25T05:55:32;6.70;;;2.70;;
41739;SDS011;27422;52.444;13.300;2023-04-25T05:57:57;5.57;;;2.95;;
41739;SDS011;27422;52.444;13.300;2023-04-25T06:00:23;5.32;;;2.67;;
41739;SDS011;27422;52.444;13.300;2023-04-25T06:02:48;6.55;;;3.15;;
41739;SDS011;27422;52.444;13.300;2023-04-25T06:05:14;6.47;;;3.20;;
41739;SDS011;27422;52.444;13.300;2023-04-25T06:07:39;5.65;;;2.97;;
41739;SDS011;27422;52.444;13.300;2023-04-25T06:10:05;8.95;;;2.78;;
41739;SDS011;27422;52.444;13.300;2023-04-25T06:12:32;9.77;;;3.38;;
41739;SDS011;27422;52.444;13.300;2023-04-25T06:14:58;6.82;;;2.92;;
41739;SDS011;27422;52.444;13.300;2023-04-25T06:17:24;8.00;;;3.30;;
41739;SDS011;27422;52.444;13.300;2023-04-25T06:19:49;6.57;;;3.10;;
41739;SDS011;27422;52.444;13.300;2023-04-25T06:22:14;8.23;;;2.90;;
41739;SDS011;27422;52.444;13.300;2023-04-25T06:24:40;8.43;;;3.22;;
41739;SDS011;27422;52.444;13.300;2023-04-25T06:29:53;6.70;;;2.63;;
41739;SDS011;27422;52.444;13.300;2023-04-25T06:32:38;9.20;;;3.00;;
41739;SDS011;27422;52.444;13.300;2023-04-25T06:35:04;7.63;;;3.00;;
41739;SDS011;27422;52.444;13.300;2023-04-25T06:37:30;7.57;;;2.85;;
41739;SDS011;27422;52.444;13.300;2023-04-25T06:39:55;7.00;;;3.15;;
41739;SDS011;27422;52.444;13.300;2023-04-25T06:42:21;6.85;;;3.10;;
41739;SDS011;27422;52.444;13.300;2023-04-25T06:44:46;7.53;;;3.53;;
41739;SDS011;27422;52.444;13.300;2023-04-25T06:47:11;6.57;;;2.72;;
41739;SDS011;27422;52.444;13.300;2023-04-25T06:49:37;5.18;;;2.83;;
41739;SDS011;27422;52.444;13.300;2023-04-25T06:52:02;6.15;;;2.80;;
41739;SDS011;27422;52.444;13.300;2023-04-25T06:54:28;8.27;;;3.05;;
41739;SDS011;27422;52.444;13.300;2023-04-25T06:56:54;7.63;;;2.95;;
41739;SDS011;27422;52.444;13.300;2023-04-25T06:59:20;5.00;;;2.55;;
41739;SDS011;27422;52.444;13.300;2023-04-25T07:01:46;5.15;;;2.40;;
41739;SDS011;27422;52.444;13.300;2023-04-25T07:04:11;5.93;;;2.38;;
41739;SDS011;27422;52.444;13.300;2023-04-25T07:06:36;5.30;;;2.53;;
41739;SDS011;27422;52.444;13.300;2023-04-25T07:09:07;6.93;;;2.67;;
41739;SDS011;27422;52.444;13.300;2023-04-25T07:11:33;8.82;;;2.72;;
41739;SDS011;27422;52.444;13.300;2023-04-25T07:13:59;6.07;;;2.67;;
41739;SDS011;27422;52.444;13.300;2023-04-25T07:16:24;5.75;;;2.80;;
41739;SDS011;27422;52.444;13.300;2023-04-25T07:18:50;5.30;;;2.63;;
41739;SDS011;27422;52.444;13.300;2023-04-25T07:21:15;6.80;;;2.72;;
41739;SDS011;27422;52.444;13.300;2023-04-25T07:23:41;6.47;;;2.47;;
41739;SDS011;27422;52.444;13.300;2023-04-25T07:26:06;5.00;;;2.42;;
41739;SDS011;27422;52.444;13.300;2023-04-25T07:28:32;7.25;;;2.30;;
41739;SDS011;27422;52.444;13.300;2023-04-25T07:30:57;7.20;;;2.40;;
41739;SDS011;27422;52.444;13.300;2023-04-25T07:33:23;7.20;;;2.20;;
41739;SDS011;27422;52.444;13.300;2023-04-25T07:35:48;6.85;;;2.42;;
41739;SDS011;27422;52.444;13.300;2023-04-25T07:38:14;8.77;;;2.20;;
41739;SDS011;27422;52.444;13.300;2023-04-25T07:40:39;9.10;;;2.50;;
41739;SDS011;27422;52.444;13.300;2023-04-25T07:43:05;9.50;;;2.72;;
41739;SDS011;27422;52.444;13.300;2023-04-25T07:45:30;11.10;;;2.80;;
41739;SDS011;27422;52.444;13.300;2023-04-25T07:47:55;5.38;;;2.20;;
41739;SDS011;27422;52.444;13.300;2023-04-25T07:50:21;7.97;;;2.40;;
41739;SDS011;27422;52.444;13.300;2023-04-25T07:52:46;9.75;;;2.70;;
41739;SDS011;27422;52.444;13.300;2023-04-25T07:55:12;5.25;;;2.08;;
41739;SDS011;27422;52.444;13.300;2023-04-25T07:57:37;9.77;;;2.55;;
41739;SDS011;27422;52.444;13.300;2023-04-25T08:00:03;7.18;;;2.30;;
41739;SDS011;27422;52.444;13.300;2023-04-25T08:02:29;8.00;;;2.20;;
41739;SDS011;27422;52.444;13.300;2023-04-25T08:04:55;6.40;;;1.95;;
41739;SDS011;27422;52.444;13.300;2023-04-25T08:07:20;6.78;;;2.25;;
41739;SDS011;27422;52.444;13.300;2023-04-25T08:09:46;8.30;;;2.70;;
41739;SDS011;27422;52.444;13.300;2023-04-25T08:12:11;8.23;;;2.63;;
41739;SDS011;27422;52.444;13.300;2023-04-25T08:14:36;8.00;;;2.80;;
41739;SDS011;27422;52.444;13.300;2023-04-25T08:17:04;6.72;;;2.08;;
41739;SDS011;27422;52.444;13.300;2023-04-25T08:19:29;10.75;;;2.25;;
41739;SDS011;27422;52.444;13.300;2023-04-25T08:21:55;9.55;;;2.05;;
41739;SDS011;27422;52.444;13.300;2023-04-25T08:24:21;8.52;;;2.10;;
41739;SDS011;27422;52.444;13.300;2023-04-25T08:26:47;8.55;;;2.25;;
41739;SDS011;27422;52.444;13.300;2023-04-25T08:29:13;8.60;;;1.98;;
41739;SDS011;27422;52.444;13.300;2023-04-25T08:31:38;8.32;;;2.13;;
41739;SDS011;27422;52.444;13.300;2023-04-25T08:34:04;7.53;;;1.80;;
41739;SDS011;27422;52.444;13.300;2023-04-25T08:36:29;9.13;;;1.45;;
41739;SDS011;27422;52.444;13.300;2023-04-25T08:38:56;11.50;;;1.83;;
41739;SDS011;27422;52.444;13.300;2023-04-25T08:41:21;6.82;;;1.38;;
41739;SDS011;27422;52.444;13.300;2023-04-25T08:43:48;10.40;;;1.75;;
41739;SDS011;27422;52.444;13.300;2023-04-25T08:46:14;9.88;;;2.13;;
41739;SDS011;27422;52.444;13.300;2023-04-25T08:48:43;4.72;;;1.40;;
41739;SDS011;27422;52.444;13.300;2023-04-25T08:51:10;3.90;;;1.13;;
41739;SDS011;27422;52.444;13.300;2023-04-25T08:53:35;7.80;;;1.60;;
41739;SDS011;27422;52.444;13.300;2023-04-25T08:56:02;4.82;;;1.50;;
41739;SDS011;27422;52.444;13.300;2023-04-25T08:58:28;7.97;;;1.65;;
41739;SDS011;27422;52.444;13.300;2023-04-25T09:00:54;9.68;;;1.88;;
41739;SDS011;27422;52.444;13.300;2023-04-25T09:03:19;6.95;;;1.80;;
41739;SDS011;27422;52.444;13.300;2023-04-25T09:05:45;7.13;;;1.92;;
41739;SDS011;27422;52.444;13.300;2023-04-25T09:08:10;4.78;;;1.50;;
41739;SDS011;27422;52.444;13.300;2023-04-25T09:10:36;7.32;;;1.80;;
41739;SDS011;27422;52.444;13.300;2023-04-25T09:13:05;5.22;;;1.20;;
41739;SDS011;27422;52.444;13.300;2023-04-25T09:18:14;7.80;;;2.00;;
41739;SDS011;27422;52.444;13.300;2023-04-25T09:20:47;5.10;;;1.30;;
41739;SDS011;27422;52.444;13.300;2023-04-25T09:23:14;7.38;;;2.10;;
41739;SDS011;27422;52.444;13.300;2023-04-25T09:25:39;6.18;;;1.33;;
41739;SDS011;27422;52.444;13.300;2023-04-25T09:28:06;4.28;;;1.45;;
41739;SDS011;27422;52.444;13.300;2023-04-25T09:30:32;5.72;;;1.55;;
41739;SDS011;27422;52.444;13.300;2023-04-25T09:33:20;8.77;;;1.75;;
41739;SDS011;27422;52.444;13.300;2023-04-25T09:35:45;4.57;;;1.42;;
41739;SDS011;27422;52.444;13.300;2023-04-25T09:38:11;7.03;;;1.63;;
41739;SDS011;27422;52.444;13.300;2023-04-25T09:40:41;7.95;;;1.77;;
41739;SDS011;27422;52.444;13.300;2023-04-25T09:43:19;7.43;;;1.75;;
41739;SDS011;27422;52.444;13.300;2023-04-25T09:45:46;7.13;;;1.90;;
41739;SDS011;27422;52.444;13.300;2023-04-25T09:48:15;5.88;;;1.70;;
41739;SDS011;27422;52.444;13.300;2023-04-25T09:50:45;5.68;;;1.42;;
41739;SDS011;27422;52.444;13.300;2023-04-25T09:53:32;5.68;;;1.48;;
41739;SDS011;27422;52.444;13.300;2023-04-25T09:55:59;6.90;;;1.50;;
41739;SDS011;27422;52.444;13.300;2023-04-25T09:58:25;5.00;;;1.65;;
41739;SDS011;27422;52.444;13.300;2023-04-25T10:00:51;5.70;;;1.70;;
41739;SDS011;27422;52.444;13.300;2023-04-25T10:03:19;6.18;;;1.30;;
41739;SDS011;27422;52.444;13.300;2023-04-25T10:05:45;4.97;;;1.40;;
41739;SDS011;27422;52.444;13.300;2023-04-25T10:08:12;5.28;;;1.63;;
41739;SDS011;27422;52.444;13.300;2023-04-25T10:10:37;6.18;;;1.27;;
41739;SDS011;27422;52.444;13.300;2023-04-25T10:13:05;5.47;;;1.38;;
41739;SDS011;27422;52.444;13.300;2023-04-25T10:15:32;5.30;;;1.40;;
41739;SDS011;27422;52.444;13.300;2023-04-25T10:18:00;5.72;;;1.25;;
41739;SDS011;27422;52.444;13.300;2023-04-25T10:20:26;4.97;;;0.85;;
41739;SDS011;27422;52.444;13.300;2023-04-25T10:22:51;4.43;;;1.17;;
41739;SDS011;27422;52.444;13.300;2023-04-25T10:25:21;7.75;;;2.00;;
41739;SDS011;27422;52.444;13.300;2023-04-25T10:27:49;6.28;;;1.70;;
41739;SDS011;27422;52.444;13.300;2023-04-25T10:30:16;4.53;;;1.50;;
41739;SDS011;27422;52.444;13.300;2023-04-25T10:32:43;5.93;;;1.37;;
41739;SDS011;27422;52.444;13.300;2023-04-25T10:35:11;4.50;;;1.25;;
41739;SDS011;27422;52.444;13.300;2023-04-25T10:37:37;5.00;;;1.58;;
41739;SDS011;27422;52.444;13.300;2023-04-25T10:40:09;9.73;;;1.95;;
41739;SDS011;27422;52.444;13.300;2023-04-25T10:42:35;6.72;;;1.80;;
41739;SDS011;27422;52.444;13.300;2023-04-25T10:45:04;4.10;;;1.15;;
41739;SDS011;27422;52.444;13.300;2023-04-25T10:47:36;5.68;;;1.40;;
41739;SDS011;27422;52.444;13.300;2023-04-25T10:50:08;3.65;;;1.10;;
41739;SDS011;27422;52.444;13.300;2023-04-25T10:52:53;5.47;;;1.08;;
41739;SDS011;27422;52.444;13.300;2023-04-25T10:55:19;6.90;;;2.15;;
41739;SDS011;27422;52.444;13.300;2023-04-25T10:57:45;5.72;;;1.42;;
41739;SDS011;27422;52.444;13.300;2023-04-25T11:00:16;9.23;;;1.70;;
41739;SDS011;27422;52.444;13.300;2023-04-25T11:02:48;7.05;;;1.60;;
41739;SDS011;27422;52.444;13.300;2023-04-25T11:05:23;8.27;;;1.70;;
41739;SDS011;27422;52.444;13.300;2023-04-25T11:07:53;5.85;;;1.35;;
41739;SDS011;27422;52.444;13.300;2023-04-25T11:10:25;6.65;;;1.42;;
41739;SDS011;27422;52.444;13.300;2023-04-25T11:12:52;5.28;;;1.30;;
41739;SDS011;27422;52.444;13.300;2023-04-25T11:15:17;4.85;;;1.20;;
41739;SDS011;27422;52.444;13.300;2023-04-25T11:17:42;5.28;;;1.30;;
41739;SDS011;27422;52.444;13.300;2023-04-25T11:20:11;5.60;;;1.40;;
41739;SDS011;27422;52.444;13.300;2023-04-25T11:22:38;5.28;;;1.48;;
41739;SDS011;27422;52.444;13.300;2023-04-25T11:25:06;6.05;;;1.10;;
41739;SDS011;27422;52.444;13.300;2023-04-25T11:27:32;3.20;;;1.08;;
41739;SDS011;27422;52.444;13.300;2023-04-25T11:30:13;4.22;;;0.93;;
41739;SDS011;27422;52.444;13.300;2023-04-25T11:32:43;3.15;;;1.00;;
41739;SDS011;27422;52.444;13.300;2023-04-25T11:35:09;6.53;;;1.35;;
41739;SDS011;27422;52.444;13.300;2023-04-25T11:37:35;5.75;;;1.10;;
41739;SDS011;27422;52.444;13.300;2023-04-25T11:40:02;6.57;;;1.60;;
41739;SDS011;27422;52.444;13.300;2023-04-25T11:42:27;4.13;;;1.10;;
41739;SDS011;27422;52.444;13.300;2023-04-25T11:44:53;3.88;;;1.15;;
41739;SDS011;27422;52.444;13.300;2023-04-25T11:47:18;4.85;;;1.10;;
41739;SDS011;27422;52.444;13.300;2023-04-25T11:49:43;5.30;;;1.15;;
41739;SDS011;27422;52.444;13.300;2023-04-25T11:52:09;6.57;;;0.95;;
41739;SDS011;27422;52.444;13.300;2023-04-25T11:54:35;5.53;;;1.17;;
41739;SDS011;27422;52.444;13.300;2023-04-25T11:57:01;3.45;;;0.98;;
41739;SDS011;27422;52.444;13.300;2023-04-25T11:59:28;4.70;;;1.10;;
41739;SDS011;27422;52.444;13.300;2023-04-25T12:01:53;3.50;;;1.10;;
41739;SDS011;27422;52.444;13.300;2023-04-25T12:04:20;7.30;;;1.17;;
41739;SDS011;27422;52.444;13.300;2023-04-25T12:06:47;4.05;;;1.02;;
41739;SDS011;27422;52.444;13.300;2023-04-25T12:09:14;8.50;;;1.90;;
41739;SDS011;27422;52.444;13.300;2023-04-25T12:11:44;4.43;;;1.20;;
41739;SDS011;27422;52.444;13.300;2023-04-25T12:14:11;4.32;;;1.20;;
41739;SDS011;27422;52.444;13.300;2023-04-25T12:16:40;5.10;;;1.20;;
41739;SDS011;27422;52.444;13.300;2023-04-25T12:19:09;3.88;;;0.98;;
41739;SDS011;27422;52.444;13.300;2023-04-25T12:21:35;5.95;;;1.30;;
41739;SDS011;27422;52.444;13.300;2023-04-25T12:24:16;6.43;;;1.30;;
41739;SDS011;27422;52.444;13.300;2023-04-25T12:27:01;4.18;;;1.42;;
41739;SDS011;27422;52.444;13.300;2023-04-25T12:29:30;3.03;;;1.10;;
41739;SDS011;27422;52.444;13.300;2023-04-25T12:31:56;5.18;;;1.20;;
41739;SDS011;27422;52.444;13.300;2023-04-25T12:34:22;2.95;;;0.90;;
41739;SDS011;27422;52.444;13.300;2023-04-25T12:36:49;5.20;;;1.42;;
41739;SDS011;27422;52.444;13.300;2023-04-25T12:39:16;5.28;;;1.25;;
41739;SDS011;27422;52.444;13.300;2023-04-25T12:41:46;4.20;;;0.93;;
41739;SDS011;27422;52.444;13.300;2023-04-25T12:44:15;6.13;;;1.20;;
41739;SDS011;27422;52.444;13.300;2023-04-25T12:47:01;4.65;;;1.33;;
41739;SDS011;27422;52.444;13.300;2023-04-25T12:49:27;4.28;;;1.17;;
41739;SDS011;27422;52.444;13.300;2023-04-25T12:51:56;4.97;;;1.20;;
41739;SDS011;27422;52.444;13.300;2023-04-25T12:54:22;7.85;;;1.50;;
41739;SDS011;27422;52.444;13.300;2023-04-25T12:56:47;5.68;;;1.45;;
41739;SDS011;27422;52.444;13.300;2023-04-25T12:59:13;8.73;;;1.10;;
41739;SDS011;27422;52.444;13.300;2023-04-25T13:01:38;2.85;;;0.88;;
41739;SDS011;27422;52.444;13.300;2023-04-25T13:04:03;3.78;;;0.82;;
41739;SDS011;27422;52.444;13.300;2023-04-25T13:06:29;6.78;;;1.15;;
41739;SDS011;27422;52.444;13.300;2023-04-25T13:08:55;2.30;;;0.73;;
41739;SDS011;27422;52.444;13.300;2023-04-25T13:11:21;2.80;;;0.93;;
41739;SDS011;27422;52.444;13.300;2023-04-25T13:13:46;4.22;;;1.00;;
41739;SDS011;27422;52.444;13.300;2023-04-25T13:16:12;5.40;;;1.20;;
41739;SDS011;27422;52.444;13.300;2023-04-25T13:18:40;4.78;;;0.90;;
41739;SDS011;27422;52.444;13.300;2023-04-25T13:21:05;4.72;;;0.88;;
41739;SDS011;27422;52.444;13.300;2023-04-25T13:23:31;4.97;;;0.82;;
41739;SDS011;27422;52.444;13.300;2023-04-25T13:25:56;4.30;;;1.20;;
41739;SDS011;27422;52.444;13.300;2023-04-25T13:28:23;4.18;;;1.20;;
41739;SDS011;27422;52.444;13.300;2023-04-25T13:30:49;4.88;;;1.10;;
41739;SDS011;27422;52.444;13.300;2023-04-25T13:33:16;4.70;;;1.48;;
41739;SDS011;27422;52.444;13.300;2023-04-25T13:35:42;3.00;;;0.80;;
41739;SDS011;27422;52.444;13.300;2023-04-25T13:38:07;3.92;;;1.17;;
41739;SDS011;27422;52.444;13.300;2023-04-25T13:40:33;3.83;;;0.80;;
41739;SDS011;27422;52.444;13.300;2023-04-25T13:42:59;3.97;;;0.90;;
41739;SDS011;27422;52.444;13.300;2023-04-25T13:45:25;3.63;;;0.70;;
41739;SDS011;27422;52.444;13.300;2023-04-25T13:47:50;4.63;;;1.17;;
41739;SDS011;27422;52.444;13.300;2023-04-25T13:50:15;4.70;;;0.90;;
41739;SDS011;27422;52.444;13.300;2023-04-25T13:52:44;3.80;;;1.17;;
41739;SDS011;27422;52.444;13.300;2023-04-25T13:55:10;4.05;;;1.10;;
41739;SDS011;27422;52.444;13.300;2023-04-25T13:57:37;3.85;;;1.00;;
41739;SDS011;27422;52.444;13.300;2023-04-25T14:00:03;3.55;;;1.10;;
41739;SDS011;27422;52.444;13.300;2023-04-25T14:02:34;2.88;;;1.15;;
41739;SDS011;27422;52.444;13.300;2023-04-25T14:04:59;4.28;;;1.00;;
41739;SDS011;27422;52.444;13.300;2023-04-25T14:07:25;3.95;;;1.10;;
41739;SDS011;27422;52.444;13.300;2023-04-25T14:09:51;4.63;;;1.00;;
41739;SDS011;27422;52.444;13.300;2023-04-25T14:12:16;2.78;;;1.02;;
41739;SDS011;27422;52.444;13.300;2023-04-25T14:14:42;3.78;;;1.05;;
41739;SDS011;27422;52.444;13.300;2023-04-25T14:17:09;5.38;;;1.13;;
41739;SDS011;27422;52.444;13.300;2023-04-25T14:19:35;4.13;;;1.10;;
41739;SDS011;27422;52.444;13.300;2023-04-25T14:22:01;3.08;;;0.80;;
41739;SDS011;27422;52.444;13.300;2023-04-25T14:24:26;3.50;;;0.90;;
41739;SDS011;27422;52.444;13.300;2023-04-25T14:26:52;7.15;;;1.42;;
41739;SDS011;27422;52.444;13.300;2023-04-25T14:29:17;2.65;;;0.80;;
41739;SDS011;27422;52.444;13.300;2023-04-25T14:31:43;4.10;;;1.15;;
41739;SDS011;27422;52.444;13.300;2023-04-25T14:34:08;4.50;;;1.00;;
41739;SDS011;27422;52.444;13.300;2023-04-25T14:36:35;3.33;;;0.82;;
41739;SDS011;27422;52.444;13.300;2023-04-25T14:39:01;6.32;;;1.23;;